Time;durP1;ratioP1;P1;durP2;ratioP2;P2;SDS_P1;SDS_P2;PMS_P1;PMS_P2;Temp;Humidity;BMP_temperature;BMP_pressure;BME280_temperature;BME280_humidity;BME280_pressure;Samples;Min_cycle;Max_cycle;Signal;HPM_P1;HPM_P2
2022/01/07 00:02:10;;;;;;;4.00;3.60;;;0.90;97.70;;;;;;5097901;28;20184;-90
2022/01/07 00:04:36;;;;;;;3.30;3.00;;;0.90;97.90;;;;;;5094424;28;20253;-87
2022/01/07 00:07:04;;;;;;;4.83;3.37;;;0.90;98.00;;;;;;5094825;28;20181;-83
2022/01/07 00:09:30;;;;;;;3.93;3.30;;;0.90;98.10;;;;;;5094883;28;20175;-85
2022/01/07 00:11:56;;;;;;;3.83;3.40;;;0.80;98.30;;;;;;5094067;28;20177;-85
2022/01/07 00:14:21;;;;;;;3.40;3.10;;;0.90;98.40;;;;;;5075660;28;20199;-89
2022/01/07 00:16:48;;;;;;;3.73;3.43;;;1.00;98.30;;;;;;5075515;28;20632;-86
2022/01/07 00:19:15;;;;;;;4.50;3.50;;;1.00;98.20;;;;;;5093964;28;20166;-86
2022/01/07 00:21:41;;;;;;;3.83;3.53;;;0.90;97.80;;;;;;5093244;28;20252;-85
2022/01/07 00:24:07;;;;;;;3.80;3.40;;;0.70;97.50;;;;;;5093503;28;20180;-84
2022/01/07 00:26:33;;;;;;;3.83;3.27;;;0.80;97.60;;;;;;5075352;28;20264;-85
2022/01/07 00:28:58;;;;;;;4.23;3.37;;;0.60;97.50;;;;;;5093310;28;20231;-86
2022/01/07 00:31:24;;;;;;;3.40;3.10;;;0.50;97.60;;;;;;5093326;28;20181;-83
2022/01/07 00:33:50;;;;;;;3.50;3.20;;;0.50;97.50;;;;;;5093417;28;20646;-83
2022/01/07 00:36:15;;;;;;;3.93;3.53;;;0.50;97.60;;;;;;5094595;28;20322;-87
2022/01/07 00:38:41;;;;;;;3.60;3.00;;;0.50;97.90;;;;;;5097471;28;20263;-83
2022/01/07 00:41:07;;;;;;;3.30;2.97;;;0.50;97.60;;;;;;5093237;28;20176;-84
2022/01/07 00:43:33;;;;;;;3.30;3.07;;;0.40;97.80;;;;;;5092774;28;20197;-82
2022/01/07 00:45:59;;;;;;;3.27;3.00;;;0.30;97.60;;;;;;5093407;28;20176;-86
2022/01/07 00:48:25;;;;;;;3.60;2.70;;;0.20;97.90;;;;;;5093887;28;20173;-86
2022/01/07 00:50:51;;;;;;;3.30;3.00;;;0.20;98.00;;;;;;5077501;28;20172;-85
2022/01/07 00:53:17;;;;;;;2.83;2.63;;;0.30;98.10;;;;;;5076402;28;20180;-85
2022/01/07 00:55:43;;;;;;;2.97;2.70;;;0.30;98.30;;;;;;5094744;28;20205;-86
2022/01/07 00:58:09;;;;;;;3.03;2.73;;;0.20;98.30;;;;;;5107910;28;20183;-82
2022/01/07 01:00:35;;;;;;;2.90;2.70;;;0.20;98.80;;;;;;5108815;28;20503;-81
2022/01/07 01:03:02;;;;;;;2.77;2.50;;;0.30;98.60;;;;;;5116643;28;20235;-86
2022/01/07 01:05:28;;;;;;;3.00;2.73;;;0.30;98.60;;;;;;5086418;28;20537;-94
2022/01/07 01:07:54;;;;;;;2.77;2.57;;;0.20;98.80;;;;;;5100516;28;20238;-88
2022/01/07 01:10:22;;;;;;;3.73;2.80;;;0.10;98.70;;;;;;5099103;28;20203;-94
2022/01/07 01:12:48;;;;;;;3.07;2.40;;;0.10;98.90;;;;;;5098217;28;20233;-95
2022/01/07 01:15:20;;;;;;;2.80;2.60;;;0.20;98.80;;;;;;5099840;28;20212;-94
2022/01/07 01:17:46;;;;;;;2.67;2.47;;;0.30;98.80;;;;;;5116591;28;20170;-91
2022/01/07 01:20:13;;;;;;;2.43;2.33;;;0.40;98.80;;;;;;5115839;28;20227;-93
2022/01/07 01:22:39;;;;;;;2.93;2.73;;;0.40;98.50;;;;;;5094605;28;20186;-91
2022/01/07 01:25:07;;;;;;;2.97;2.67;;;0.40;98.60;;;;;;5117755;28;20159;-84
2022/01/07 01:27:33;;;;;;;3.13;2.80;;;0.40;98.50;;;;;;5120513;28;20180;-82
2022/01/07 01:30:01;;;;;;;2.67;2.50;;;0.40;98.50;;;;;;5113301;28;20206;-84
2022/01/07 01:32:27;;;;;;;2.60;2.40;;;0.40;98.40;;;;;;5106298;28;20168;-86
2022/01/07 01:34:53;;;;;;;3.07;2.80;;;0.30;98.80;;;;;;5082549;28;20630;-83
2022/01/07 01:37:18;;;;;;;2.80;2.60;;;0.30;98.80;;;;;;5080376;28;20176;-87
2022/01/07 01:39:44;;;;;;;2.73;2.53;;;0.30;99.00;;;;;;5076117;28;20201;-86
2022/01/07 01:42:10;;;;;;;2.97;2.73;;;0.30;98.80;;;;;;5076343;28;20183;-87
2022/01/07 01:44:36;;;;;;;3.03;2.83;;;0.30;98.80;;;;;;5076543;28;20518;-89
2022/01/07 01:47:02;;;;;;;3.13;2.53;;;0.40;99.00;;;;;;5076441;28;20180;-84
2022/01/07 01:49:29;;;;;;;2.80;2.60;;;0.40;99.00;;;;;;5076523;28;20263;-86
2022/01/07 01:51:54;;;;;;;4.80;2.37;;;0.30;98.30;;;;;;5076525;28;20209;-84
2022/01/07 01:54:20;;;;;;;3.87;2.53;;;0.20;98.40;;;;;;5076347;28;20177;-85
2022/01/07 01:56:47;;;;;;;2.73;2.53;;;0.20;98.60;;;;;;5076322;28;20706;-83
2022/01/07 01:59:13;;;;;;;2.37;2.27;;;0.30;98.50;;;;;;5076622;28;20259;-86
2022/01/07 02:01:40;;;;;;;3.00;2.47;;;0.20;98.60;;;;;;5076465;28;20188;-84
2022/01/07 02:04:07;;;;;;;2.87;2.53;;;0.30;98.60;;;;;;5074057;28;20181;-84
2022/01/07 02:06:34;;;;;;;2.73;2.53;;;0.30;98.40;;;;;;5075833;28;20173;-84
2022/01/07 02:09:00;;;;;;;2.80;2.60;;;0.20;98.30;;;;;;5075368;28;20175;-83
2022/01/07 02:11:26;;;;;;;4.00;2.60;;;0.10;98.40;;;;;;5075743;28;20654;-87
2022/01/07 02:13:57;;;;;;;2.80;2.40;;;0.00;98.60;;;;;;5074477;28;20176;-83
2022/01/07 02:16:27;;;;;;;2.70;2.40;;;0.00;98.60;;;;;;5075506;28;20209;-85
2022/01/07 02:18:53;;;;;;;2.77;2.50;;;0.00;98.60;;;;;;5075431;28;20169;-82
2022/01/07 02:21:20;;;;;;;3.10;2.80;;;0.00;98.70;;;;;;5075387;28;20180;-83
2022/01/07 02:23:47;;;;;;;3.17;2.77;;;0.00;98.90;;;;;;5074623;28;20622;-83
2022/01/07 02:26:14;;;;;;;3.67;2.60;;;-0.10;99.20;;;;;;5075215;28;20170;-83
2022/01/07 02:28:41;;;;;;;2.30;2.10;;;0.00;99.20;;;;;;5074216;28;20172;-82
2022/01/07 02:31:07;;;;;;;2.70;2.50;;;0.00;99.30;;;;;;5075070;28;20633;-83
2022/01/07 02:33:33;;;;;;;4.07;2.40;;;0.00;99.00;;;;;;5075170;28;20253;-83
2022/01/07 02:36:09;;;;;;;3.40;2.40;;;0.00;99.00;;;;;;5089302;28;20335;-84
2022/01/07 02:38:36;;;;;;;2.83;2.57;;;-0.10;99.10;;;;;;5097193;28;20174;-91
2022/01/07 02:41:02;;;;;;;3.87;2.80;;;0.00;99.10;;;;;;5101817;28;20171;-89
2022/01/07 02:43:28;;;;;;;2.67;2.47;;;-0.10;99.20;;;;;;5104217;28;20172;-86
2022/01/07 02:45:53;;;;;;;3.97;2.53;;;-0.10;99.20;;;;;;5090439;28;20183;-91
2022/01/07 02:48:20;;;;;;;2.70;2.43;;;-0.10;99.30;;;;;;5109564;28;20167;-81
2022/01/07 02:50:46;;;;;;;5.80;3.03;;;-0.20;99.30;;;;;;5107131;28;20226;-90
2022/01/07 02:53:12;;;;;;;2.67;2.47;;;-0.10;99.30;;;;;;5098171;28;20173;-84
2022/01/07 02:55:39;;;;;;;3.33;3.03;;;-0.10;99.30;;;;;;5095204;28;20199;-83
2022/01/07 02:58:06;;;;;;;3.83;2.70;;;-0.10;99.40;;;;;;5094973;28;20164;-83
2022/01/07 03:00:32;;;;;;;2.70;2.50;;;-0.20;99.60;;;;;;5095514;28;20522;-84
2022/01/07 03:03:00;;;;;;;4.63;2.23;;;-0.10;99.60;;;;;;5095667;28;20169;-84
2022/01/07 03:05:26;;;;;;;2.60;2.40;;;0.00;99.60;;;;;;5095637;28;20179;-82
2022/01/07 03:07:52;;;;;;;2.50;2.30;;;-0.10;99.60;;;;;;5095310;28;20163;-83
2022/01/07 03:10:29;;;;;;;3.00;2.70;;;-0.10;99.90;;;;;;5094848;28;20687;-83
2022/01/07 03:13:00;;;;;;;2.60;2.50;;;-0.10;99.70;;;;;;5095127;28;20160;-83
2022/01/07 03:15:27;;;;;;;3.47;2.60;;;-0.10;99.40;;;;;;5095649;28;20198;-92
2022/01/07 03:17:53;;;;;;;2.37;2.27;;;-0.10;99.10;;;;;;5078760;28;20540;-88
2022/01/07 03:20:20;;;;;;;3.27;2.80;;;-0.20;99.00;;;;;;5112299;28;20230;-89
2022/01/07 03:22:47;;;;;;;3.20;2.90;;;-0.20;99.00;;;;;;5118290;28;20199;-83
2022/01/07 03:25:14;;;;;;;3.40;3.07;;;-0.20;99.00;;;;;;5099098;28;20558;-87
2022/01/07 03:27:39;;;;;;;3.93;2.83;;;-0.30;98.80;;;;;;5104702;28;20165;-93
2022/01/07 03:30:07;;;;;;;3.10;2.90;;;-0.40;98.80;;;;;;5096248;28;20255;-94
2022/01/07 03:32:33;;;;;;;3.33;3.00;;;-0.40;99.10;;;;;;5096079;28;20173;-90
2022/01/07 03:34:59;;;;;;;3.53;3.23;;;-0.30;99.10;;;;;;5095872;28;20223;-94
2022/01/07 03:37:25;;;;;;;3.63;2.93;;;-0.30;99.00;;;;;;5096232;28;20185;-93
2022/01/07 03:39:54;;;;;;;3.07;2.73;;;-0.20;99.20;;;;;;5096136;28;20701;-94
2022/01/07 03:42:20;;;;;;;2.97;2.70;;;-0.20;99.10;;;;;;5079047;28;20234;-94
2022/01/07 03:44:46;;;;;;;4.13;3.47;;;-0.30;98.80;;;;;;5079467;28;20211;-93
2022/01/07 03:47:13;;;;;;;3.20;3.00;;;-0.30;98.70;;;;;;5095547;28;20211;-91
2022/01/07 03:49:39;;;;;;;3.53;2.77;;;-0.30;98.80;;;;;;5078280;28;20176;-95
2022/01/07 03:52:05;;;;;;;3.00;2.70;;;-0.40;99.10;;;;;;5097682;28;20178;-90
2022/01/07 03:54:30;;;;;;;3.00;2.80;;;-0.30;99.10;;;;;;5103661;28;20162;-93
2022/01/07 03:56:56;;;;;;;2.93;2.73;;;-0.30;99.20;;;;;;5108407;28;20187;-93
2022/01/07 03:59:22;;;;;;;2.80;2.60;;;-0.30;99.40;;;;;;5098325;28;20204;-93
2022/01/07 04:01:47;;;;;;;2.70;2.50;;;-0.20;99.40;;;;;;5099898;28;20568;-93
2022/01/07 04:04:13;;;;;;;2.70;2.50;;;-0.20;99.10;;;;;;5078040;28;20198;-93
2022/01/07 04:06:39;;;;;;;2.80;2.57;;;-0.20;99.10;;;;;;5110688;28;20187;-92
2022/01/07 04:09:05;;;;;;;2.70;2.50;;;-0.20;99.10;;;;;;5100159;28;20193;-94
2022/01/07 04:11:31;;;;;;;3.37;2.43;;;-0.20;98.90;;;;;;5114067;28;20179;-83
2022/01/07 04:13:57;;;;;;;2.70;2.50;;;-0.30;99.00;;;;;;5119265;28;20158;-84
2022/01/07 04:16:22;;;;;;;2.60;2.40;;;-0.40;99.10;;;;;;5117165;28;20266;-82
2022/01/07 04:18:48;;;;;;;2.70;2.50;;;-0.50;99.20;;;;;;5076710;28;20596;-82
2022/01/07 04:21:14;;;;;;;2.63;2.50;;;-0.50;99.10;;;;;;5103496;28;20256;-82
2022/01/07 04:23:40;;;;;;;2.50;2.40;;;-0.50;99.20;;;;;;5099792;28;20181;-82
2022/01/07 04:26:05;;;;;;;2.63;2.40;;;-0.50;99.30;;;;;;5100443;28;20623;-82
2022/01/07 04:28:31;;;;;;;2.33;2.10;;;-0.50;99.30;;;;;;5080332;28;20179;-82
2022/01/07 04:30:57;;;;;;;2.43;2.30;;;-0.60;99.50;;;;;;5105858;28;20194;-83
2022/01/07 04:33:26;;;;;;;2.30;2.20;;;-0.60;99.20;;;;;;5103721;28;20177;-83
2022/01/07 04:35:52;;;;;;;2.37;2.17;;;-0.70;99.20;;;;;;5105084;28;20256;-87
2022/01/07 04:38:18;;;;;;;2.60;2.40;;;-0.70;99.30;;;;;;5098882;28;20633;-87
2022/01/07 04:40:44;;;;;;;2.50;2.27;;;-0.80;99.40;;;;;;5076208;28;20182;-88
2022/01/07 04:43:10;;;;;;;2.53;2.33;;;-0.80;99.50;;;;;;5076333;28;20632;-89
2022/01/07 04:45:36;;;;;;;2.70;2.50;;;-0.80;99.60;;;;;;5095943;28;20177;-86
2022/01/07 04:48:02;;;;;;;2.53;2.33;;;-0.80;99.60;;;;;;5097833;28;20175;-86
2022/01/07 04:50:29;;;;;;;2.57;2.47;;;-0.90;99.70;;;;;;5099067;28;20216;-88
2022/01/07 04:52:55;;;;;;;2.80;2.63;;;-0.90;99.80;;;;;;5099642;28;20174;-90
2022/01/07 04:55:25;;;;;;;3.00;2.50;;;-0.90;99.90;;;;;;5099724;28;20190;-90
2022/01/07 04:57:52;;;;;;;3.80;2.40;;;-0.90;99.90;;;;;;5077006;28;20179;-93
2022/01/07 05:00:20;;;;;;;2.43;2.30;;;-1.00;99.90;;;;;;5094972;28;20167;-92
2022/01/07 05:02:47;;;;;;;3.03;2.80;;;-0.90;99.90;;;;;;5094976;28;20258;-94
2022/01/07 05:05:13;;;;;;;4.67;2.70;;;-0.90;99.90;;;;;;5094503;28;20171;-94
2022/01/07 05:07:39;;;;;;;4.40;2.67;;;-0.90;99.90;;;;;;5095253;28;20198;-92
2022/01/07 05:10:10;;;;;;;3.13;2.90;;;-0.80;99.90;;;;;;5095748;28;20179;-93
2022/01/07 05:12:39;;;;;;;3.87;2.80;;;-0.80;99.90;;;;;;5096764;28;20254;-90
2022/01/07 05:15:06;;;;;;;3.30;3.00;;;-0.90;99.90;;;;;;5111840;28;20206;-84
2022/01/07 05:17:35;;;;;;;3.30;3.00;;;-0.80;99.90;;;;;;5114888;28;20183;-86
2022/01/07 05:20:02;;;;;;;2.90;2.70;;;-0.90;99.90;;;;;;5099974;28;20575;-88
2022/01/07 05:22:28;;;;;;;3.37;3.07;;;-1.00;99.90;;;;;;5102275;28;20167;-93
2022/01/07 05:24:54;;;;;;;3.97;2.93;;;-1.00;99.90;;;;;;5094422;28;20179;-89
2022/01/07 05:27:20;;;;;;;4.37;3.07;;;-1.00;99.90;;;;;;5094202;28;20170;-93
2022/01/07 05:29:46;;;;;;;6.10;3.00;;;-1.00;99.90;;;;;;5094326;28;20532;-93
2022/01/07 05:32:12;;;;;;;3.47;3.17;;;-1.10;99.90;;;;;;5094294;28;20254;-93
2022/01/07 05:34:38;;;;;;;3.37;2.93;;;-1.00;99.90;;;;;;5094050;28;20331;-93
2022/01/07 05:37:04;;;;;;;3.53;3.03;;;-1.10;99.90;;;;;;5093865;28;20208;-92
2022/01/07 05:39:30;;;;;;;2.93;2.73;;;-1.20;99.90;;;;;;5093885;28;20167;-91
2022/01/07 05:41:57;;;;;;;3.30;3.00;;;-1.20;99.90;;;;;;5093959;28;20265;-89
2022/01/07 05:44:23;;;;;;;2.97;2.63;;;-1.30;99.90;;;;;;5097240;28;20244;-93
2022/01/07 05:46:49;;;;;;;4.97;3.10;;;-1.30;99.90;;;;;;5097006;28;20630;-87
2022/01/07 05:49:15;;;;;;;4.87;3.00;;;-1.30;99.90;;;;;;5097452;28;20217;-84
2022/01/07 05:51:41;;;;;;;3.30;2.87;;;-1.30;99.90;;;;;;5096676;28;20178;-89
2022/01/07 05:54:08;;;;;;;3.30;2.80;;;-1.40;99.90;;;;;;5096843;28;20249;-89
2022/01/07 05:56:35;;;;;;;5.07;3.07;;;-1.40;99.90;;;;;;5096680;28;20203;-89
2022/01/07 05:59:01;;;;;;;2.60;2.40;;;-1.40;99.90;;;;;;5078923;28;20170;-90
2022/01/07 06:01:27;;;;;;;3.43;2.47;;;-1.40;99.90;;;;;;5109660;28;20179;-84
2022/01/07 06:03:53;;;;;;;3.40;2.40;;;-1.40;99.90;;;;;;5107543;28;20756;-87
2022/01/07 06:06:19;;;;;;;4.87;2.77;;;-1.40;99.90;;;;;;5098796;28;20193;-89
2022/01/07 06:08:45;;;;;;;2.97;2.70;;;-1.40;99.90;;;;;;5101559;28;20193;-93
2022/01/07 06:11:10;;;;;;;2.83;2.63;;;-1.30;99.90;;;;;;5103423;28;20645;-89
2022/01/07 06:13:36;;;;;;;3.23;2.50;;;-1.40;99.90;;;;;;5085277;28;20185;-92
2022/01/07 06:16:03;;;;;;;3.33;3.03;;;-1.40;99.90;;;;;;5082159;28;20201;-84
2022/01/07 06:18:29;;;;;;;2.70;2.50;;;-1.40;99.90;;;;;;5099977;28;20171;-82
2022/01/07 06:20:55;;;;;;;4.60;3.00;;;-1.30;99.90;;;;;;5096899;28;20178;-83
2022/01/07 06:23:21;;;;;;;3.97;2.70;;;-1.30;99.90;;;;;;5101513;28;20591;-82
2022/01/07 06:25:49;;;;;;;3.33;3.07;;;-1.40;99.90;;;;;;5102830;28;20691;-82
2022/01/07 06:28:18;;;;;;;4.67;3.03;;;-1.40;99.90;;;;;;5100694;28;20184;-82
2022/01/07 06:30:45;;;;;;;3.17;2.83;;;-1.40;99.90;;;;;;5104900;28;20170;-87
2022/01/07 06:33:10;;;;;;;3.67;3.10;;;-1.50;99.90;;;;;;5108493;28;20214;-91
2022/01/07 06:35:36;;;;;;;4.33;3.93;;;-1.50;99.90;;;;;;5105063;28;20230;-87
2022/01/07 06:38:03;;;;;;;3.20;2.90;;;-1.50;99.90;;;;;;5104064;28;20253;-88
2022/01/07 06:40:29;;;;;;;3.20;2.90;;;-1.40;99.90;;;;;;5102924;28;20166;-82
2022/01/07 06:42:55;;;;;;;3.40;2.90;;;-1.40;99.90;;;;;;5085352;28;20659;-83
2022/01/07 06:45:20;;;;;;;7.53;2.90;;;-1.30;99.90;;;;;;5106320;28;20562;-90
2022/01/07 06:47:46;;;;;;;2.93;2.70;;;-1.20;99.90;;;;;;5097805;28;20182;-90
2022/01/07 06:50:12;;;;;;;4.47;3.10;;;-1.20;99.90;;;;;;5097269;28;20168;-87
2022/01/07 06:52:38;;;;;;;5.60;3.73;;;-1.20;99.90;;;;;;5097563;28;20642;-87
2022/01/07 06:55:05;;;;;;;3.80;3.47;;;-1.30;99.90;;;;;;5097929;28;20245;-94
2022/01/07 06:57:30;;;;;;;3.90;3.33;;;-1.20;99.90;;;;;;5084119;28;20215;-95
2022/01/07 06:59:56;;;;;;;3.53;3.23;;;-1.30;99.90;;;;;;5100366;28;20163;-90
2022/01/07 07:02:22;;;;;;;5.80;3.47;;;-1.30;99.90;;;;;;5099421;28;20216;-90
2022/01/07 07:04:48;;;;;;;4.20;3.73;;;-1.30;99.90;;;;;;5097250;28;20182;-91
2022/01/07 07:07:14;;;;;;;3.17;2.97;;;-1.30;99.90;;;;;;5098851;28;20174;-86
2022/01/07 07:09:40;;;;;;;3.43;3.13;;;-1.30;99.90;;;;;;5118305;28;20166;-87
2022/01/07 07:12:06;;;;;;;3.47;3.27;;;-1.20;99.90;;;;;;5116670;28;20170;-91
2022/01/07 07:14:32;;;;;;;6.03;4.13;;;-1.10;99.90;;;;;;5100582;28;20166;-89
2022/01/07 07:16:58;;;;;;;4.50;3.80;;;-1.00;99.90;;;;;;5078404;28;20524;-84
2022/01/07 07:19:24;;;;;;;4.63;3.57;;;-1.00;99.90;;;;;;5095821;28;20186;-86
2022/01/07 07:21:51;;;;;;;4.07;3.60;;;-1.00;99.90;;;;;;5077264;28;20199;-85
2022/01/07 07:24:16;;;;;;;3.93;3.47;;;-1.00;99.90;;;;;;5078564;28;20174;-88
2022/01/07 07:26:42;;;;;;;4.93;3.80;;;-1.00;99.90;;;;;;5100246;28;20230;-84
2022/01/07 07:29:08;;;;;;;3.63;3.43;;;-1.00;99.90;;;;;;5101261;28;20166;-87
2022/01/07 07:31:38;;;;;;;6.07;3.47;;;-1.20;99.90;;;;;;5098793;28;20174;-84
2022/01/07 07:36:33;;;;;;;6.83;3.80;;;-1.20;99.90;;;;;;5096488;28;20293;-88
2022/01/07 07:39:07;;;;;;;5.10;3.70;;;-1.20;99.90;;;;;;5095767;28;20642;-88
2022/01/07 07:41:34;;;;;;;6.23;3.77;;;-1.10;99.90;;;;;;5095618;28;20215;-84
2022/01/07 07:44:00;;;;;;;4.40;4.00;;;-1.20;99.90;;;;;;5095564;28;20170;-88
2022/01/07 07:46:30;;;;;;;7.80;4.33;;;-1.20;99.90;;;;;;5094467;28;20177;-88
2022/01/07 07:48:56;;;;;;;7.17;4.57;;;-1.10;99.90;;;;;;5077095;28;20178;-84
2022/01/07 07:51:22;;;;;;;5.50;4.53;;;-1.00;99.90;;;;;;5095769;28;20656;-90
2022/01/07 07:53:48;;;;;;;5.37;4.10;;;-1.00;99.90;;;;;;5096703;28;20261;-85
2022/01/07 07:56:16;;;;;;;4.40;4.03;;;-1.10;99.90;;;;;;5094554;28;20670;-85
2022/01/07 07:58:42;;;;;;;5.07;4.10;;;-1.10;99.90;;;;;;5094536;28;20166;-84
2022/01/07 08:01:08;;;;;;;4.10;3.80;;;-1.10;99.90;;;;;;5094871;28;20178;-82
2022/01/07 08:03:35;;;;;;;4.43;4.03;;;-1.10;99.90;;;;;;5079054;28;20212;-82
2022/01/07 08:06:01;;;;;;;5.07;4.10;;;-1.10;99.90;;;;;;5077505;28;20593;-82
2022/01/07 08:08:27;;;;;;;5.47;4.03;;;-0.90;99.90;;;;;;5096054;28;20190;-83
2022/01/07 08:10:56;;;;;;;6.57;4.60;;;-0.90;99.90;;;;;;5076706;28;20544;-83
2022/01/07 08:13:28;;;;;;;6.10;5.20;;;-0.80;99.90;;;;;;5099447;28;20162;-83
2022/01/07 08:16:06;;;;;;;5.60;4.83;;;-0.70;99.90;;;;;;5078714;28;20247;-93
2022/01/07 08:18:33;;;;;;;6.23;4.60;;;-0.60;99.90;;;;;;5077997;28;20174;-90
2022/01/07 08:21:09;;;;;;;5.77;3.57;;;-0.60;99.90;;;;;;5095352;28;20176;-88
2022/01/07 08:23:38;;;;;;;6.37;4.53;;;-0.60;99.90;;;;;;5078343;28;20240;-91
2022/01/07 08:26:07;;;;;;;4.67;4.20;;;-0.50;99.90;;;;;;5076393;28;20193;-92
2022/01/07 08:28:39;;;;;;;4.47;4.10;;;-0.50;99.90;;;;;;5058322;28;20542;-88
2022/01/07 08:36:26;;;;;;;4.30;3.90;;;-0.10;99.90;;;;;;5079317;28;20229;-87
2022/01/07 08:38:53;;;;;;;3.90;3.60;;;-0.10;99.90;;;;;;5088188;28;20171;-82
2022/01/07 08:41:21;;;;;;;4.30;4.00;;;-0.10;99.90;;;;;;5072420;28;20182;-84
2022/01/07 08:43:46;;;;;;;3.90;3.60;;;0.00;99.90;;;;;;5089761;28;20168;-93
2022/01/07 08:46:12;;;;;;;4.33;3.97;;;0.10;99.90;;;;;;5085341;28;20187;-85
2022/01/07 08:48:39;;;;;;;5.53;3.40;;;0.10;99.90;;;;;;5088861;28;20408;-81
2022/01/07 08:51:07;;;;;;;5.00;3.20;;;0.10;99.90;;;;;;5093418;28;20233;-87
2022/01/07 08:53:34;;;;;;;3.70;3.40;;;0.20;99.40;;;;;;5095534;28;20176;-86
2022/01/07 08:56:00;;;;;;;6.93;4.10;;;0.20;99.20;;;;;;5074948;28;20216;-82
2022/01/07 08:58:26;;;;;;;4.10;3.70;;;0.20;98.80;;;;;;5088071;28;20228;-86
2022/01/07 09:00:52;;;;;;;5.00;4.37;;;0.20;98.60;;;;;;5070276;28;20185;-86
2022/01/07 09:03:18;;;;;;;4.27;3.53;;;0.20;98.60;;;;;;5086546;28;20177;-90
2022/01/07 09:05:44;;;;;;;4.30;3.90;;;0.30;98.60;;;;;;5096618;28;20394;-89
2022/01/07 09:08:12;;;;;;;5.53;4.00;;;0.40;98.40;;;;;;5091402;28;20177;-94
2022/01/07 09:10:38;;;;;;;4.50;4.10;;;0.40;98.70;;;;;;5074950;28;20176;-92
2022/01/07 09:13:04;;;;;;;5.63;4.70;;;0.50;98.70;;;;;;5093916;28;20750;-91
2022/01/07 09:15:30;;;;;;;5.40;4.60;;;0.50;98.50;;;;;;5094487;28;20658;-92
2022/01/07 09:17:56;;;;;;;5.03;4.03;;;0.50;98.40;;;;;;5096217;28;20201;-88
2022/01/07 09:20:22;;;;;;;4.80;4.40;;;0.50;98.60;;;;;;5098460;28;20629;-89
2022/01/07 09:22:49;;;;;;;6.07;4.70;;;0.60;98.70;;;;;;5098529;28;20193;-87
2022/01/07 09:25:15;;;;;;;4.67;4.23;;;0.60;98.80;;;;;;5079668;28;20179;-88
2022/01/07 09:27:42;;;;;;;5.87;4.70;;;0.60;98.80;;;;;;5098171;28;20185;-93
2022/01/07 09:30:10;;;;;;;4.90;4.40;;;0.70;99.00;;;;;;5103983;28;20492;-86
2022/01/07 09:32:36;;;;;;;5.13;4.73;;;0.70;99.10;;;;;;5104293;28;20175;-95
2022/01/07 09:35:03;;;;;;;5.13;4.73;;;0.60;99.20;;;;;;5108126;28;20228;-94
2022/01/07 09:37:29;;;;;;;5.37;4.97;;;0.70;99.30;;;;;;5098893;28;20175;-86
2022/01/07 09:39:55;;;;;;;4.87;4.40;;;0.70;99.40;;;;;;5098861;28;20179;-85
2022/01/07 09:42:20;;;;;;;6.87;4.80;;;0.80;99.50;;;;;;5097124;28;20179;-89
2022/01/07 09:44:48;;;;;;;6.03;5.10;;;0.80;99.50;;;;;;5100170;28;20547;-81
2022/01/07 09:47:14;;;;;;;7.10;5.07;;;0.80;99.30;;;;;;5097775;28;20179;-87
2022/01/07 09:49:41;;;;;;;6.43;4.30;;;0.90;99.40;;;;;;5104958;28;20199;-88
2022/01/07 09:52:08;;;;;;;5.37;4.60;;;0.90;99.50;;;;;;5110865;28;20172;-82
2022/01/07 09:54:36;;;;;;;6.07;5.07;;;0.90;99.60;;;;;;5110797;28;20168;-86
2022/01/07 09:57:04;;;;;;;8.13;4.93;;;1.00;99.60;;;;;;5099440;28;20184;-83
2022/01/07 09:59:30;;;;;;;7.13;3.90;;;1.00;99.40;;;;;;5096065;28;20176;-81
2022/01/07 10:02:04;;;;;;;6.47;4.47;;;1.00;99.50;;;;;;5096097;28;20192;-82
2022/01/07 10:04:33;;;;;;;6.73;4.50;;;1.00;99.40;;;;;;5095696;28;20165;-86
2022/01/07 10:07:32;;;;;;;4.57;4.17;;;1.00;99.50;;;;;;5095193;28;20675;-81
2022/01/07 10:10:02;;;;;;;6.47;4.90;;;1.10;99.50;;;;;;4993822;28;20184;-82
2022/01/07 10:12:34;;;;;;;6.53;5.17;;;1.10;99.40;;;;;;4993928;28;20303;-83
2022/01/07 10:15:10;;;;;;;5.97;4.60;;;1.10;99.70;;;;;;4994043;28;20207;-83
2022/01/07 10:17:36;;;;;;;5.40;4.80;;;1.20;99.80;;;;;;4993922;28;20176;-81
2022/01/07 10:20:03;;;;;;;7.47;5.37;;;1.20;99.40;;;;;;4994094;28;20547;-80
2022/01/07 10:22:28;;;;;;;7.63;5.00;;;1.20;99.60;;;;;;4993798;28;20238;-80
2022/01/07 10:24:57;;;;;;;7.33;4.80;;;1.20;99.70;;;;;;4993648;28;20179;-80
2022/01/07 10:27:37;;;;;;;10.90;4.80;;;1.20;99.80;;;;;;4976783;28;20187;-81
2022/01/07 10:30:14;;;;;;;7.03;4.60;;;1.30;99.70;;;;;;4993141;28;20196;-82
2022/01/07 10:32:40;;;;;;;6.67;4.90;;;1.40;99.90;;;;;;4993313;28;20186;-87
2022/01/07 10:35:21;;;;;;;8.00;4.27;;;1.40;99.60;;;;;;4993213;28;20693;-82
2022/01/07 10:37:50;;;;;;;5.90;4.50;;;1.50;99.40;;;;;;4993586;28;20168;-81
2022/01/07 10:40:34;;;;;;;5.03;4.10;;;1.40;99.30;;;;;;4993540;28;20199;-81
2022/01/07 10:43:21;;;;;;;4.40;4.00;;;1.50;99.20;;;;;;4993584;28;20169;-81
2022/01/07 10:45:53;;;;;;;7.57;3.57;;;1.50;98.90;;;;;;5054926;28;20187;-82
2022/01/07 10:48:22;;;;;;;4.23;3.73;;;1.50;98.80;;;;;;5094454;28;20195;-81
2022/01/07 10:50:51;;;;;;;4.93;3.60;;;1.50;98.60;;;;;;5095221;28;20204;-81
2022/01/07 10:53:28;;;;;;;4.40;3.97;;;1.60;98.60;;;;;;5076750;28;20175;-81
2022/01/07 10:55:57;;;;;;;3.50;3.20;;;1.60;98.50;;;;;;5095273;28;20364;-81
2022/01/07 10:58:23;;;;;;;4.37;3.70;;;1.70;98.70;;;;;;5095632;28;20657;-81
2022/01/07 11:00:48;;;;;;;3.33;3.03;;;1.70;98.60;;;;;;5102805;28;20245;-81
2022/01/07 11:03:17;;;;;;;4.03;3.30;;;1.70;98.50;;;;;;5109536;28;20183;-81
2022/01/07 11:05:43;;;;;;;3.20;3.00;;;1.60;98.00;;;;;;5096722;28;20238;-82
2022/01/07 11:08:08;;;;;;;5.13;3.53;;;1.70;98.00;;;;;;5094073;28;20763;-82
2022/01/07 11:10:36;;;;;;;5.40;3.17;;;1.70;97.80;;;;;;5094831;28;20170;-81
2022/01/07 11:13:03;;;;;;;3.37;3.17;;;1.70;97.60;;;;;;5094502;28;20175;-81
2022/01/07 11:15:29;;;;;;;3.50;3.20;;;1.70;97.60;;;;;;5095387;28;20210;-82
2022/01/07 11:17:54;;;;;;;3.43;3.23;;;1.80;97.90;;;;;;5078452;28;20176;-82
2022/01/07 11:20:24;;;;;;;5.10;4.63;;;1.80;97.50;;;;;;5094341;28;20303;-81
2022/01/07 11:22:54;;;;;;;3.63;3.33;;;1.80;96.90;;;;;;5094317;28;20172;-81
2022/01/07 11:25:31;;;;;;;4.70;3.17;;;1.80;97.20;;;;;;5094272;28;20191;-81
2022/01/07 11:27:59;;;;;;;3.97;2.90;;;1.80;96.60;;;;;;5075738;28;20536;-81
2022/01/07 11:30:31;;;;;;;3.07;2.87;;;1.90;96.50;;;;;;5075956;28;20205;-81
2022/01/07 11:33:00;;;;;;;7.13;3.03;;;1.90;96.50;;;;;;5093915;28;20627;-82
2022/01/07 11:35:26;;;;;;;5.40;3.03;;;2.00;96.80;;;;;;5093830;28;20286;-82
2022/01/07 11:37:59;;;;;;;2.77;2.50;;;2.00;96.60;;;;;;5094406;28;20184;-82
2022/01/07 11:40:31;;;;;;;3.50;3.13;;;2.00;96.10;;;;;;5093387;28;20161;-82
2022/01/07 11:43:24;;;;;;;3.73;2.90;;;2.00;95.80;;;;;;5094023;28;20176;-82
2022/01/07 11:45:50;;;;;;;3.30;3.00;;;2.00;95.20;;;;;;5077292;28;20241;-82
2022/01/07 11:48:25;;;;;;;2.73;2.50;;;2.00;95.60;;;;;;5093130;28;20177;-81
2022/01/07 11:50:59;;;;;;;2.67;2.47;;;2.10;95.70;;;;;;5075633;28;20183;-82
2022/01/07 11:53:40;;;;;;;3.80;2.60;;;2.00;95.50;;;;;;5093788;28;20194;-82
2022/01/07 11:56:08;;;;;;;3.20;2.80;;;2.10;94.40;;;;;;5093691;28;20204;-82
2022/01/07 11:58:51;;;;;;;3.33;3.07;;;2.10;94.70;;;;;;5075811;28;20177;-82
2022/01/07 12:01:24;;;;;;;3.90;3.50;;;2.10;95.00;;;;;;5093957;28;20166;-82
2022/01/07 12:03:52;;;;;;;4.03;3.63;;;2.10;94.60;;;;;;5075596;28;20522;-82
2022/01/07 12:06:24;;;;;;;6.37;5.00;;;2.20;95.00;;;;;;5075345;28;20179;-82
2022/01/07 12:09:06;;;;;;;4.57;3.57;;;2.20;94.40;;;;;;5074611;28;20645;-82
2022/01/07 12:11:57;;;;;;;3.27;2.97;;;2.30;94.20;;;;;;5093412;28;20197;-82
2022/01/07 12:14:25;;;;;;;2.60;2.40;;;2.30;93.10;;;;;;5081471;28;20180;-81
2022/01/07 12:16:53;;;;;;;5.87;2.50;;;2.30;93.70;;;;;;5093487;28;20546;-82
2022/01/07 12:19:20;;;;;;;2.50;2.37;;;2.30;92.30;;;;;;5093473;28;20668;-82
2022/01/07 12:21:49;;;;;;;3.17;2.90;;;2.30;92.30;;;;;;5094328;28;20712;-82
2022/01/07 12:24:22;;;;;;;3.97;2.90;;;2.30;92.50;;;;;;5094665;28;20579;-82
2022/01/07 12:27:08;;;;;;;2.90;2.70;;;2.20;91.60;;;;;;5093494;28;20166;-82
2022/01/07 12:29:37;;;;;;;3.00;2.80;;;2.20;90.20;;;;;;5092840;28;20200;-82
2022/01/07 12:32:05;;;;;;;2.90;2.70;;;2.10;90.70;;;;;;5093438;28;20232;-81
2022/01/07 12:34:40;;;;;;;4.80;2.80;;;2.20;90.40;;;;;;5092895;28;20162;-81
2022/01/07 12:37:09;;;;;;;3.03;2.83;;;2.30;90.40;;;;;;5093192;28;20517;-82
2022/01/07 12:39:37;;;;;;;2.30;2.20;;;2.30;90.80;;;;;;5092976;28;20184;-81
2022/01/07 12:42:05;;;;;;;2.63;2.43;;;2.30;91.20;;;;;;5092954;28;20170;-82
2022/01/07 12:44:39;;;;;;;2.90;2.70;;;2.30;91.00;;;;;;5093084;28;20648;-81
2022/01/07 12:47:06;;;;;;;3.30;2.93;;;2.30;90.90;;;;;;5092871;28;20272;-80
2022/01/07 12:49:34;;;;;;;3.77;2.63;;;2.30;90.20;;;;;;5093018;28;20175;-81
2022/01/07 12:52:04;;;;;;;2.90;2.67;;;2.40;90.80;;;;;;5095401;28;20624;-81
2022/01/07 12:54:30;;;;;;;2.97;2.70;;;2.40;91.50;;;;;;5098550;28;20296;-80
2022/01/07 12:56:56;;;;;;;3.00;2.80;;;2.40;91.30;;;;;;5111986;28;20202;-80
2022/01/07 12:59:25;;;;;;;2.73;2.53;;;2.40;90.70;;;;;;5114147;28;20178;-81
2022/01/07 13:01:51;;;;;;;2.87;2.67;;;2.40;90.20;;;;;;5103165;28;20170;-81
2022/01/07 13:04:22;;;;;;;2.77;2.57;;;2.40;91.00;;;;;;5097193;28;20176;-81